Aérodrome :
LOGIN :

S'inscrire | Disclaimer

   EN    FR    IT 

 










Légende :    VFR   VFR Marginal   IFR   IFR Intensif   IFR Très Intensif
Visi : 
Plafond : 
>= 8 km
>= 3000ft
5 à 8 km
1000 à 3000 ft
1500m à 5 km
500 à 1000 ft
800 à 1500m
200 à 500 ft
< 800m
< 200 ft
Symboles :   Orages  Brouillard  Fortes neiges  Fortes précipitations  Vent > 20 kt
SIGMETs :   Divers  Orages  Givrage  Turbulence  Onde Orograph.  Cendres Volcan.







- Altitude de l'aérodrome : 1197 ft
- Code IATA : SPM


ETAD - Spangdahlem Ab

DERNIER METAR :
  • 181756Z AUTO 08007KT 9999 CLR 02/01 A3002 RMK AO2 SLP171 60000 T00190013 10058 20019 57014 $

METARs EXPIRÉS :
  • 181656Z AUTO 09008KT 9999 CLR 03/02 A3004 RMK AO2 SLP178 T00250015 $
  • 181556Z AUTO 10008KT 9999 CLR 03/02 A3005 RMK AO2 SLP181 T00320016 $

TAF TAF ETAD
Valide du 18 à 13h jusqu'au 19 à 19h UTC


181300Z 1813/1919 16006KT 9999 FEW015 SCT120 QNH3016INS
BECMG 1816/1817 17006KT 9999 SCT015 BKN100 QNH3015INS
BECMG 1822/1823 18006KT 9999 BKN010 OVC100 QNH3015INS
BECMG 1901/1902 21006KT 6000 -RA BR OVC005 QNH3015INS
BECMG 1907/1908 22010G15KT 8000 BR OVC005 QNH3015INS
BECMG 1915/1916 22006KT 8000 BR OVC005 QNH3015INS TX06/1813Z TN03/1819Z
Pas de NOTAMs connus pour ce terrain.



MET'MAP, la Météo Aéronautique d'un coup d'oeil ! - Copyright ORBIFLY Décembre 2007 - Disclaimer

ORBIFLY MET'MAP TEAM :

Programmation & Développement : Alexandra Zaïnal
Conception & Développement : Baudouin d'Aumeries
Co-Programmation & Développement : Marc-Olivier Méhu
Soutien technique & logistique : Manuel Goepfert

Contact : metmap@orbifly.com




SOURCES & CREDITS :

   NOAA